createdAt,value
2018-07-09T00:02:22.337Z,100844.70
2018-07-09T00:04:50.819Z,100843.34
2018-07-09T00:07:19.905Z,100845.53
2018-07-09T00:09:48.350Z,100843.34
2018-07-09T00:12:16.823Z,100847.20
2018-07-09T00:14:45.251Z,100844.20
2018-07-09T00:17:13.721Z,100843.63
2018-07-09T00:19:42.206Z,100840.09
2018-07-09T00:22:11.261Z,100843.66
2018-07-09T00:24:39.728Z,100851.05
2018-07-09T00:27:08.205Z,100845.86
2018-07-09T00:29:36.633Z,100845.86
2018-07-09T00:32:05.097Z,100841.74
2018-07-09T00:34:33.530Z,100844.73
2018-07-09T00:37:01.973Z,100853.52
2018-07-09T00:39:30.468Z,100849.66
2018-07-09T00:41:59.017Z,100843.92
2018-07-09T00:44:27.493Z,100842.83
2018-07-09T00:46:56.178Z,100843.11
2018-07-09T00:49:24.645Z,100845.02
2018-07-09T00:51:53.309Z,100842.82
2018-07-09T00:54:21.782Z,100841.73
2018-07-09T00:56:50.829Z,100847.48
2018-07-09T00:59:19.285Z,100854.31
2018-07-09T01:01:47.785Z,100849.11
2018-07-09T01:04:16.220Z,100847.75
2018-07-09T01:06:45.246Z,100851.83
2018-07-09T01:09:13.687Z,100849.09
2018-07-09T01:11:46.918Z,100854.02
2018-07-09T01:14:15.465Z,100857.29
2018-07-09T01:16:43.923Z,100848.55
2018-07-09T01:19:12.360Z,100849.33
2018-07-09T01:21:40.874Z,100852.62
2018-07-09T01:24:09.406Z,100844.66
2018-07-09T01:26:38.932Z,100843.27
2018-07-09T01:29:07.390Z,100843.00
2018-07-09T01:31:36.055Z,100847.06
2018-07-09T01:34:04.465Z,100839.34
2018-07-09T01:36:32.946Z,100847.53
2018-07-09T01:39:01.350Z,100844.23
2018-07-09T01:41:29.824Z,100842.61
2018-07-09T01:43:58.270Z,100841.48
2018-07-09T01:46:26.725Z,100849.38
2018-07-09T01:48:55.153Z,100847.97
2018-07-09T01:51:23.571Z,100852.33
2018-07-09T01:53:52.025Z,100853.14
2018-07-09T01:56:20.439Z,100849.81
2018-07-09T01:58:48.865Z,100847.91
2018-07-09T02:01:17.273Z,100843.55
2018-07-09T02:03:45.714Z,100841.85
2018-07-09T02:06:14.211Z,100845.17
2018-07-09T02:08:42.674Z,100846.19
2018-07-09T02:11:11.110Z,100840.75
2018-07-09T02:13:39.537Z,100842.12
2018-07-09T02:16:07.921Z,100847.84
2018-07-09T02:18:36.353Z,100847.84
2018-07-09T02:21:04.772Z,100845.33
2018-07-09T02:23:33.176Z,100852.33
2018-07-09T02:26:01.554Z,100855.63
2018-07-09T02:28:29.964Z,100856.42
2018-07-09T02:30:58.383Z,100857.33
2018-07-09T02:33:26.959Z,100851.84
2018-07-09T02:35:55.346Z,100849.02
2018-07-09T02:38:23.781Z,100843.58
2018-07-09T02:40:52.173Z,100845.80
2018-07-09T02:43:20.610Z,100840.00
2018-07-09T02:45:49.018Z,100844.64
2018-07-09T02:48:17.697Z,100835.58
2018-07-09T02:50:46.120Z,100836.11
2018-07-09T02:53:14.560Z,100832.59
2018-07-09T02:55:43.011Z,100841.08
2018-07-09T02:58:11.414Z,100845.95
2018-07-09T03:00:39.836Z,100851.64
2018-07-09T03:03:08.241Z,100852.98
2018-07-09T03:05:36.659Z,100856.20
2018-07-09T03:08:05.121Z,100860.81
2018-07-09T03:10:33.500Z,100863.22
2018-07-09T03:13:01.923Z,100854.71
2018-07-09T03:15:30.339Z,100862.58
2018-07-09T03:17:58.743Z,100872.93
2018-07-09T03:20:27.138Z,100866.03
2018-07-09T03:22:55.635Z,100864.39
2018-07-09T03:25:24.031Z,100869.31
2018-07-09T03:27:52.506Z,100874.80
2018-07-09T03:30:20.960Z,100874.72
2018-07-09T03:32:49.396Z,100875.84
2018-07-09T03:35:17.869Z,100867.30
2018-07-09T03:37:46.261Z,100863.52
2018-07-09T03:40:14.684Z,100865.70
2018-07-09T03:42:43.128Z,100861.31
2018-07-09T03:45:11.618Z,100869.27
2018-07-09T03:47:40.130Z,100862.98
2018-07-09T03:50:08.541Z,100863.22
2018-07-09T03:52:36.986Z,100867.90
2018-07-09T03:55:05.467Z,100867.02
2018-07-09T03:57:33.893Z,100867.90
2018-07-09T04:00:02.346Z,100871.19
2018-07-09T04:02:30.758Z,100869.34
2018-07-09T04:04:59.235Z,100868.30
2018-07-09T04:07:27.677Z,100870.14
2018-07-09T04:09:56.126Z,100875.60
2018-07-09T04:12:24.589Z,100873.14
2018-07-09T04:14:53.054Z,100881.37
2018-07-09T04:17:21.633Z,100870.01
2018-07-09T04:19:50.095Z,100871.43
2018-07-09T04:22:18.500Z,100874.61
2018-07-09T04:24:47.017Z,100872.81
2018-07-09T04:27:15.473Z,100875.55
2018-07-09T04:29:43.932Z,100876.45
2018-07-09T04:32:12.380Z,100888.31
2018-07-09T04:34:40.893Z,100885.02
2018-07-09T04:37:09.332Z,100879.34
2018-07-09T04:39:37.772Z,100889.85
2018-07-09T04:42:06.261Z,100879.50
2018-07-09T04:44:34.707Z,100881.64
2018-07-09T04:47:03.186Z,100878.80
2018-07-09T04:49:31.937Z,100885.41
2018-07-09T04:52:00.369Z,100895.84
2018-07-09T04:54:28.836Z,100895.03
2018-07-09T04:56:58.217Z,100896.38
2018-07-09T04:59:27.521Z,100890.54
2018-07-09T05:01:56.189Z,100893.89
2018-07-09T05:04:24.696Z,100895.01
2018-07-09T05:06:53.276Z,100894.77
2018-07-09T05:09:21.732Z,100901.06
2018-07-09T05:11:50.145Z,100903.09
2018-07-09T05:14:18.601Z,100898.75
2018-07-09T05:16:47.027Z,100901.27
2018-07-09T05:19:15.471Z,100898.00
2018-07-09T05:21:43.962Z,100893.05
2018-07-09T05:24:12.382Z,100896.66
2018-07-09T05:26:40.837Z,100895.91
2018-07-09T05:29:09.276Z,100899.43
2018-07-09T05:31:37.731Z,100895.61
2018-07-09T05:34:06.174Z,100901.61
2018-07-09T05:36:34.660Z,100898.41
2018-07-09T05:39:03.419Z,100905.81
2018-07-09T05:41:32.056Z,100905.82
2018-07-09T05:44:00.465Z,100902.27
2018-07-09T05:46:29.029Z,100903.07
2018-07-09T05:48:58.374Z,100903.34
2018-07-09T05:51:26.805Z,100900.91
2018-07-09T05:53:55.208Z,100893.48
2018-07-09T05:56:23.957Z,100897.52
2018-07-09T05:58:53.084Z,100902.64
2018-07-09T06:01:21.510Z,100900.78
2018-07-09T06:03:49.942Z,100906.86
2018-07-09T06:06:18.445Z,100905.94
2018-07-09T06:08:47.385Z,100904.64
2018-07-09T06:11:15.900Z,100909.22
2018-07-09T06:13:44.258Z,100915.61
2018-07-09T06:16:12.714Z,100905.67
2018-07-09T06:18:41.677Z,100905.36
2018-07-09T06:21:10.122Z,100905.38
2018-07-09T06:23:38.602Z,100900.05
2018-07-09T06:26:07.122Z,100911.44
2018-07-09T06:28:35.530Z,100906.22
2018-07-09T06:31:04.001Z,100908.70
2018-07-09T06:33:32.521Z,100905.58
2018-07-09T06:36:01.002Z,100897.03
2018-07-09T06:38:29.414Z,100905.20
2018-07-09T06:40:57.845Z,100905.40
2018-07-09T06:43:26.269Z,100903.45
2018-07-09T06:45:54.669Z,100901.65
2018-07-09T06:48:23.097Z,100902.26
2018-07-09T06:50:51.618Z,100903.67
2018-07-09T06:53:20.092Z,100902.41
2018-07-09T06:55:48.549Z,100909.88
2018-07-09T06:58:16.985Z,100909.20
2018-07-09T07:00:45.425Z,100910.09
2018-07-09T07:03:13.943Z,100910.25
2018-07-09T07:05:42.418Z,100910.78
2018-07-09T07:08:10.928Z,100914.11
2018-07-09T07:10:39.506Z,100914.38
2018-07-09T07:13:07.975Z,100918.41
2018-07-09T07:15:36.449Z,100910.33
2018-07-09T07:18:04.986Z,100904.69
2018-07-09T07:20:33.442Z,100913.91
2018-07-09T07:23:01.921Z,100910.71
2018-07-09T07:25:30.461Z,100907.48
2018-07-09T07:27:59.218Z,100908.16
2018-07-09T07:30:27.714Z,100909.22
2018-07-09T07:32:56.224Z,100917.02
2018-07-09T07:35:24.658Z,100912.41
2018-07-09T07:37:53.150Z,100907.42
2018-07-09T07:40:21.613Z,100906.47
2018-07-09T07:42:50.113Z,100906.86
2018-07-09T07:45:18.732Z,100903.88
2018-07-09T07:47:47.176Z,100908.50
2018-07-09T07:50:15.659Z,100901.48
2018-07-09T07:52:44.125Z,100902.76
2018-07-09T07:55:13.225Z,100901.09
2018-07-09T07:57:41.753Z,100901.27
2018-07-09T08:00:11.158Z,100899.54
2018-07-09T08:02:39.808Z,100901.31
2018-07-09T08:05:08.359Z,100906.16
2018-07-09T08:07:36.906Z,100899.08
2018-07-09T08:10:06.218Z,100898.63
2018-07-09T08:15:03.147Z,100896.70
2018-07-09T08:17:31.622Z,100893.59
2018-07-09T08:20:00.099Z,100896.08
2018-07-09T08:22:28.627Z,100887.81
2018-07-09T08:24:57.088Z,100897.64
2018-07-09T08:27:25.473Z,100896.42
2018-07-09T08:29:53.897Z,100901.09
2018-07-09T08:32:22.385Z,100906.66
2018-07-09T08:34:50.786Z,100898.16
2018-07-09T08:37:19.237Z,100899.34
2018-07-09T08:39:47.705Z,100900.28
2018-07-09T08:42:16.130Z,100904.05
2018-07-09T08:44:44.906Z,100895.94
2018-07-09T08:47:14.041Z,100885.02
2018-07-09T08:49:42.524Z,100887.06
2018-07-09T08:52:11.009Z,100887.30
2018-07-09T08:54:39.561Z,100891.42
2018-07-09T08:57:07.981Z,100890.77
2018-07-09T08:59:36.394Z,100882.12
2018-07-09T09:02:04.839Z,100886.98
2018-07-09T09:04:33.286Z,100891.45
2018-07-09T09:07:01.742Z,100893.77
2018-07-09T09:09:30.317Z,100889.11
2018-07-09T09:11:58.717Z,100876.09
2018-07-09T09:14:27.727Z,100881.50
2018-07-09T09:16:56.950Z,100876.72
2018-07-09T09:19:25.467Z,100872.98
2018-07-09T09:21:53.935Z,100867.87
2018-07-09T09:24:22.396Z,100861.31
2018-07-09T09:26:51.004Z,100862.62
2018-07-09T09:29:19.417Z,100869.57
2018-07-09T09:31:47.910Z,100867.31
2018-07-09T09:34:16.329Z,100867.69
2018-07-09T09:36:44.761Z,100867.58
2018-07-09T09:39:13.216Z,100865.64
2018-07-09T09:41:41.621Z,100856.59
2018-07-09T09:44:10.186Z,100853.87
2018-07-09T09:46:39.103Z,100855.50
2018-07-09T09:49:07.523Z,100861.30
2018-07-09T09:51:36.601Z,100849.23
2018-07-09T09:54:05.099Z,100852.31
2018-07-09T09:56:33.614Z,100849.92
2018-07-09T09:59:02.094Z,100849.77
2018-07-09T10:01:30.538Z,100844.50
2018-07-09T10:03:59.021Z,100836.67
2018-07-09T10:06:27.433Z,100831.72
2018-07-09T10:08:55.945Z,100837.09
2018-07-09T10:11:24.402Z,100836.89
2018-07-09T10:13:52.908Z,100832.96
2018-07-09T10:16:21.347Z,100834.19
2018-07-09T10:18:49.835Z,100831.91
2018-07-09T10:21:18.257Z,100826.48
2018-07-09T10:23:46.697Z,100827.73
2018-07-09T10:26:15.136Z,100826.71
2018-07-09T10:28:43.570Z,100821.91
2018-07-09T10:31:12.006Z,100817.54
2018-07-09T10:33:40.550Z,100809.55
2018-07-09T10:36:08.977Z,100807.02
2018-07-09T10:38:37.448Z,100812.89
2018-07-09T10:41:06.936Z,100808.60
2018-07-09T10:43:35.412Z,100819.83
2018-07-09T10:46:03.879Z,100821.56
2018-07-09T10:48:32.353Z,100824.14
2018-07-09T10:51:00.841Z,100821.75
2018-07-09T10:53:29.520Z,100822.48
2018-07-09T10:55:58.088Z,100820.05
2018-07-09T10:58:26.556Z,100814.92
2018-07-09T11:00:55.138Z,100814.81
2018-07-09T11:03:23.630Z,100808.13
2018-07-09T11:05:52.125Z,100817.46
2018-07-09T11:08:20.837Z,100817.44
2018-07-09T11:10:49.505Z,100800.72
2018-07-09T11:13:18.007Z,100796.93
2018-07-09T11:15:46.482Z,100789.84
2018-07-09T11:18:14.926Z,100792.02
2018-07-09T11:20:43.409Z,100790.80
2018-07-09T11:23:11.885Z,100793.84
2018-07-09T11:25:40.393Z,100787.72
2018-07-09T11:28:08.854Z,100796.91
2018-07-09T11:30:37.315Z,100794.91
2018-07-09T11:33:05.842Z,100783.06
2018-07-09T11:35:34.322Z,100782.00
2018-07-09T11:38:02.774Z,100792.73
2018-07-09T11:40:31.237Z,100792.92
2018-07-09T11:42:59.725Z,100779.05
2018-07-09T11:45:28.241Z,100789.98
2018-07-09T11:47:56.678Z,100786.92
2018-07-09T11:50:25.170Z,100788.13
2018-07-09T11:52:56.013Z,100790.36
2018-07-09T11:55:25.722Z,100779.98
2018-07-09T11:57:54.297Z,100774.27
2018-07-09T12:00:22.838Z,100775.52
2018-07-09T12:02:51.257Z,100779.42
2018-07-09T12:05:19.704Z,100767.05
2018-07-09T12:07:54.571Z,100771.16
2018-07-09T12:10:23.073Z,100771.20
2018-07-09T12:12:51.539Z,100783.27
2018-07-09T12:15:21.063Z,100778.34
2018-07-09T12:17:49.502Z,100780.19
2018-07-09T12:20:17.960Z,100777.44
2018-07-09T12:22:46.388Z,100775.05
2018-07-09T12:25:14.906Z,100765.98
2018-07-09T12:27:43.330Z,100766.75
2018-07-09T12:30:11.838Z,100761.55
2018-07-09T12:32:40.284Z,100772.00
2018-07-09T12:35:08.800Z,100764.10
2018-07-09T12:37:37.283Z,100768.02
2018-07-09T12:40:05.833Z,100769.37
2018-07-09T12:42:34.290Z,100771.91
2018-07-09T12:45:02.761Z,100770.55
2018-07-09T12:47:31.200Z,100771.23
2018-07-09T12:49:59.700Z,100765.17
2018-07-09T12:52:28.232Z,100764.36
2018-07-09T12:54:56.701Z,100770.03
2018-07-09T12:57:25.137Z,100766.88
2018-07-09T12:59:53.610Z,100768.21
2018-07-09T13:02:22.038Z,100758.13
2018-07-09T13:04:50.442Z,100766.80
2018-07-09T13:07:18.862Z,100757.78
2018-07-09T13:09:47.252Z,100750.45
2018-07-09T13:12:19.792Z,100759.66
2018-07-09T13:14:48.745Z,100765.92
2018-07-09T13:17:17.213Z,100763.19
2018-07-09T13:19:45.683Z,100757.74
2018-07-09T13:22:14.075Z,100763.91
2018-07-09T13:24:42.498Z,100742.27
2018-07-09T13:27:10.961Z,100744.42
2018-07-09T13:29:39.438Z,100745.94
2018-07-09T13:32:07.893Z,100749.73
2018-07-09T13:34:36.341Z,100749.17
2018-07-09T13:37:05.443Z,100752.84
2018-07-09T13:39:34.425Z,100743.84
2018-07-09T13:42:02.885Z,100748.42
2018-07-09T13:44:31.340Z,100744.27
2018-07-09T13:46:59.886Z,100738.94
2018-07-09T13:49:28.321Z,100745.09
2018-07-09T13:51:56.826Z,100738.48
2018-07-09T13:54:25.364Z,100733.38
2018-07-09T13:56:53.847Z,100735.10
2018-07-09T13:59:22.429Z,100727.72
2018-07-09T14:01:50.876Z,100720.73
2018-07-09T14:04:19.305Z,100721.55
2018-07-09T14:06:47.739Z,100719.43
2018-07-09T14:09:16.224Z,100717.52
2018-07-09T14:11:44.750Z,100718.23
2018-07-09T14:14:13.264Z,100705.73
2018-07-09T14:16:41.771Z,100696.89
2018-07-09T14:20:34.378Z,100690.95
2018-07-09T14:23:03.361Z,100688.58
2018-07-09T14:25:31.849Z,100677.83
2018-07-09T14:28:00.557Z,100686.00
2018-07-09T14:30:29.003Z,100678.76
2018-07-09T14:32:57.491Z,100683.59
2018-07-09T14:35:25.987Z,100674.61
2018-07-09T14:37:54.467Z,100673.36
2018-07-09T14:40:23.205Z,100670.06
2018-07-09T14:42:51.726Z,100673.80
2018-07-09T14:45:21.164Z,100674.05
2018-07-09T14:47:49.641Z,100669.44
2018-07-09T14:50:18.126Z,100667.13
2018-07-09T14:52:46.718Z,100673.84
2018-07-09T14:55:15.221Z,100667.14
2018-07-09T14:57:43.704Z,100668.09
2018-07-09T15:00:12.238Z,100659.58
2018-07-09T15:02:40.702Z,100654.99
2018-07-09T15:05:09.172Z,100649.61
2018-07-09T15:07:37.671Z,100644.50
2018-07-09T15:10:06.224Z,100643.59
2018-07-09T15:12:34.717Z,100640.36
2018-07-09T15:15:03.198Z,100640.33
2018-07-09T15:17:31.713Z,100637.33
2018-07-09T15:20:00.132Z,100629.22
2018-07-09T15:22:28.657Z,100630.42
2018-07-09T15:24:57.129Z,100636.03
2018-07-09T15:27:25.649Z,100632.77
2018-07-09T15:29:54.114Z,100633.81
2018-07-09T15:32:24.557Z,100628.59
2018-07-09T15:34:53.141Z,100625.74
2018-07-09T15:37:21.761Z,100623.19
2018-07-09T15:39:50.249Z,100628.84
2018-07-09T15:42:18.741Z,100627.80
2018-07-09T15:44:47.509Z,100620.03
2018-07-09T15:47:16.181Z,100621.42
2018-07-09T15:49:44.938Z,100623.06
2018-07-09T15:52:13.770Z,100618.20
2018-07-09T15:54:42.230Z,100615.63
2018-07-09T15:57:11.113Z,100612.68
2018-07-09T15:59:39.637Z,100609.63
2018-07-09T16:02:08.097Z,100603.81
2018-07-09T16:04:36.549Z,100611.23
2018-07-09T16:07:07.149Z,100603.97
2018-07-09T16:09:35.585Z,100602.53
2018-07-09T16:12:04.041Z,100600.09
2018-07-09T16:14:32.518Z,100593.87
2018-07-09T16:17:01.235Z,100587.65
2018-07-09T16:19:29.662Z,100581.80
2018-07-09T16:21:58.173Z,100578.20
2018-07-09T16:24:26.724Z,100585.13
2018-07-09T16:27:00.997Z,100581.95
2018-07-09T16:29:29.426Z,100585.16
2018-07-09T16:31:57.909Z,100585.27
2018-07-09T16:34:26.376Z,100578.91
2018-07-09T16:36:54.855Z,100579.36
2018-07-09T16:39:23.361Z,100576.59
2018-07-09T16:41:53.176Z,100576.59
2018-07-09T16:44:21.655Z,100577.72
2018-07-09T16:46:50.218Z,100573.82
2018-07-09T16:49:18.657Z,100562.73
2018-07-09T16:51:47.178Z,100571.91
2018-07-09T16:54:15.646Z,100571.66
2018-07-09T16:56:44.203Z,100571.80
2018-07-09T16:59:13.353Z,100565.31
2018-07-09T17:01:41.794Z,100563.20
2018-07-09T17:06:17.731Z,100569.94
2018-07-09T17:08:46.205Z,100562.25
2018-07-09T17:11:14.658Z,100564.49
2018-07-09T17:13:43.138Z,100571.61
2018-07-09T17:16:11.805Z,100564.17
2018-07-09T17:18:42.449Z,100566.35
2018-07-09T17:21:10.918Z,100572.59
2018-07-09T17:23:39.418Z,100572.74
2018-07-09T17:26:07.878Z,100564.24
2018-07-09T17:28:36.343Z,100563.64
2018-07-09T17:31:04.804Z,100567.18
2018-07-09T17:33:33.265Z,100558.56
2018-07-09T17:36:01.721Z,100565.88
2018-07-09T17:38:31.021Z,100558.42
2018-07-09T17:40:59.468Z,100564.16
2018-07-09T17:43:28.007Z,100566.91
2018-07-09T17:45:56.479Z,100565.13
2018-07-09T17:48:25.014Z,100557.88
2018-07-09T17:50:53.613Z,100557.32
2018-07-09T17:53:22.605Z,100557.41
2018-07-09T17:55:51.021Z,100553.90
2018-07-09T17:58:19.474Z,100563.54
2018-07-09T18:00:47.908Z,100556.98
2018-07-09T18:03:16.329Z,100557.61
2018-07-09T18:05:44.882Z,100554.55
2018-07-09T18:08:13.296Z,100561.36
2018-07-09T18:10:41.764Z,100550.22
2018-07-09T18:13:10.229Z,100556.33
2018-07-09T18:15:39.165Z,100551.61
2018-07-09T18:18:08.045Z,100558.53
2018-07-09T18:20:37.386Z,100551.30
2018-07-09T18:23:06.278Z,100543.83
2018-07-09T18:25:34.894Z,100545.27
2018-07-09T18:28:03.400Z,100542.84
2018-07-09T18:30:32.197Z,100547.50
2018-07-09T18:33:00.825Z,100543.09
2018-07-09T18:35:29.552Z,100543.83
2018-07-09T18:37:57.985Z,100543.75
2018-07-09T18:40:26.523Z,100539.45
2018-07-09T18:42:56.168Z,100538.78
2018-07-09T18:45:25.074Z,100538.45
2018-07-09T18:47:53.827Z,100543.02
2018-07-09T18:50:22.289Z,100540.73
2018-07-09T18:52:50.758Z,100536.81
2018-07-09T18:55:19.647Z,100536.28
2018-07-09T18:57:48.527Z,100538.89
2018-07-09T19:00:18.062Z,100540.02
2018-07-09T19:02:46.859Z,100543.34
2018-07-09T19:05:15.664Z,100536.97
2018-07-09T19:07:44.383Z,100535.17
2018-07-09T19:10:12.932Z,100540.96
2018-07-09T19:12:41.498Z,100538.90
2018-07-09T19:15:10.063Z,100542.27
2018-07-09T19:18:01.386Z,100539.16
2018-07-09T19:21:40.586Z,100532.39
2018-07-09T19:24:09.261Z,100532.86
2018-07-09T19:26:36.966Z,100532.37
2018-07-09T19:29:04.446Z,100530.17
2018-07-09T19:31:34.961Z,100526.56
2018-07-09T19:34:02.230Z,100518.34
2018-07-09T19:36:29.557Z,100534.12
2018-07-09T19:38:56.753Z,100528.31
2018-07-09T19:41:24.029Z,100536.28
2018-07-09T19:43:51.294Z,100524.94
2018-07-09T19:46:18.566Z,100534.60
2018-07-09T19:48:46.704Z,100532.13
2018-07-09T19:51:14.866Z,100533.58
2018-07-09T19:53:42.094Z,100538.16
2018-07-09T19:56:10.272Z,100542.54
2018-07-09T19:58:37.569Z,100544.59
2018-07-09T20:01:04.824Z,100556.13
2018-07-09T20:03:32.141Z,100551.73
2018-07-09T20:05:59.437Z,100552.00
2018-07-09T20:08:32.112Z,100553.98
2018-07-09T20:11:04.606Z,100550.17
2018-07-09T20:14:02.337Z,100547.71
2018-07-09T20:16:35.000Z,100554.98
2018-07-09T20:19:02.598Z,100558.25
2018-07-09T20:21:30.881Z,100558.70
2018-07-09T20:23:58.385Z,100561.83
2018-07-09T20:26:26.274Z,100564.70
2018-07-09T20:28:53.651Z,100564.84
2018-07-09T20:31:21.463Z,100567.83
2018-07-09T20:33:49.004Z,100562.67
2018-07-09T20:36:17.260Z,100562.56
2018-07-09T20:38:44.886Z,100557.66
2018-07-09T20:41:12.606Z,100560.55
2018-07-09T20:43:39.846Z,100556.89
2018-07-09T20:46:07.105Z,100557.77
2018-07-09T20:48:34.356Z,100555.75
2018-07-09T20:51:01.641Z,100553.90
2018-07-09T20:53:28.870Z,100557.53
2018-07-09T20:55:56.122Z,100557.10
2018-07-09T20:58:23.358Z,100556.02
2018-07-09T21:00:50.648Z,100560.02
2018-07-09T21:03:17.880Z,100564.25
2018-07-09T21:05:45.170Z,100563.01
2018-07-09T21:08:12.440Z,100560.69
2018-07-09T21:10:39.966Z,100561.34
2018-07-09T21:13:07.214Z,100557.36
2018-07-09T21:15:34.549Z,100554.27
2018-07-09T21:18:01.713Z,100550.81
2018-07-09T21:20:28.949Z,100553.25
2018-07-09T21:22:56.179Z,100553.69
2018-07-09T21:25:23.423Z,100554.11
2018-07-09T21:27:50.646Z,100549.20
2018-07-09T21:30:17.878Z,100548.10
2018-07-09T21:32:45.130Z,100552.38
2018-07-09T21:35:12.361Z,100543.53
2018-07-09T21:37:39.700Z,100547.62
2018-07-09T21:40:06.867Z,100547.55
2018-07-09T21:42:34.168Z,100542.39
2018-07-09T21:45:01.417Z,100532.02
2018-07-09T21:47:28.677Z,100533.62
2018-07-09T21:49:55.909Z,100539.84
2018-07-09T21:52:24.022Z,100534.78
2018-07-09T21:54:51.277Z,100538.35
2018-07-09T21:57:18.524Z,100535.02
2018-07-09T21:59:45.773Z,100539.03
2018-07-09T22:02:13.009Z,100536.44
2018-07-09T22:04:40.249Z,100532.85
2018-07-09T22:07:07.495Z,100534.51
2018-07-09T22:09:34.836Z,100536.56
2018-07-09T22:12:02.104Z,100532.07
2018-07-09T22:14:29.322Z,100529.36
2018-07-09T22:16:56.748Z,100531.14
2018-07-09T22:19:24.119Z,100533.91
2018-07-09T22:21:51.367Z,100532.20
2018-07-09T22:24:18.717Z,100529.77
2018-07-09T22:26:45.953Z,100531.42
2018-07-09T22:29:13.201Z,100527.40
2018-07-09T22:31:41.713Z,100520.84
2018-07-09T22:34:10.117Z,100529.45
2018-07-09T22:36:38.682Z,100531.02
2018-07-09T22:39:07.190Z,100533.83
2018-07-09T22:41:35.608Z,100526.38
2018-07-09T22:44:18.042Z,100524.55
2018-07-09T22:46:46.892Z,100523.60
2018-07-09T22:49:15.283Z,100529.34
2018-07-09T22:51:43.865Z,100527.53
2018-07-09T22:54:12.266Z,100528.87
2018-07-09T22:56:40.722Z,100527.56
2018-07-09T22:59:09.129Z,100529.57
2018-07-09T23:01:37.686Z,100532.40
2018-07-09T23:04:06.173Z,100531.84
2018-07-09T23:06:34.593Z,100528.87
2018-07-09T23:09:14.409Z,100524.77
2018-07-09T23:14:56.503Z,100524.90
2018-07-09T23:17:36.113Z,100523.31
2018-07-09T23:20:51.045Z,100521.34
2018-07-09T23:23:18.281Z,100523.86
2018-07-09T23:25:45.520Z,100515.10
2018-07-09T23:28:12.991Z,100526.22
2018-07-09T23:30:40.364Z,100522.10
2018-07-09T23:33:07.621Z,100516.73
2018-07-09T23:35:34.878Z,100511.52
2018-07-09T23:38:02.121Z,100513.34
2018-07-09T23:40:29.344Z,100511.05
2018-07-09T23:42:56.601Z,100504.13
2018-07-09T23:45:23.875Z,100502.33
2018-07-09T23:47:52.133Z,100498.64
2018-07-09T23:50:19.360Z,100495.86
2018-07-09T23:52:46.613Z,100503.80
2018-07-09T23:55:13.835Z,100495.56
2018-07-09T23:59:55.709Z,100493.70
